Time;durP1;ratioP1;P1;durP2;ratioP2;P2;SDS_P1;SDS_P2;PMS_P1;PMS_P2;Temp;Humidity;BMP_temperature;BMP_pressure;BME280_temperature;BME280_humidity;BME280_pressure;Samples;Min_cycle;Max_cycle;Signal;HPM_P1;HPM_P2
2022/04/21 00:02:14;;;;;;;9.57;6.40;;;;;;;2.78;100.00;61101.88;5112719;28;20441;-72
2022/04/21 00:04:43;;;;;;;9.27;6.93;;;;;;;2.84;100.00;61105.22;5112733;28;20448;-73
2022/04/21 00:07:10;;;;;;;9.20;6.40;;;;;;;2.79;100.00;61105.47;5112278;28;20506;-71
2022/04/21 00:09:37;;;;;;;10.63;7.20;;;;;;;2.78;100.00;61104.38;5111836;28;20440;-73
2022/04/21 00:12:04;;;;;;;13.30;7.17;;;;;;;2.75;100.00;61098.16;5112345;28;20441;-71
2022/04/21 00:14:31;;;;;;;12.20;7.90;;;;;;;2.76;100.00;61101.75;5112695;28;20492;-73
2022/04/21 00:16:58;;;;;;;10.00;6.90;;;;;;;2.66;100.00;61089.13;5112457;28;20445;-73
2022/04/21 00:19:25;;;;;;;10.87;6.57;;;;;;;2.48;100.00;61073.03;5112292;28;20517;-72
2022/04/21 00:24:38;;;;;;;9.37;6.57;;;;;;;2.50;100.00;61075.16;5112447;28;20424;-73
2022/04/21 00:27:06;;;;;;;9.70;6.87;;;;;;;2.65;100.00;61085.00;5112348;28;20484;-73
2022/04/21 00:29:33;;;;;;;11.23;6.90;;;;;;;2.75;100.00;61100.66;5112201;28;20545;-73
2022/04/21 00:32:01;;;;;;;9.43;6.97;;;;;;;2.66;100.00;61091.13;5112134;28;20441;-72
2022/04/21 00:34:27;;;;;;;11.67;7.70;;;;;;;2.31;100.00;61049.97;5112272;28;20456;-74
2022/04/21 00:36:56;;;;;;;9.83;7.93;;;;;;;2.60;100.00;61082.22;5111998;28;20959;-71
2022/04/21 00:39:23;;;;;;;11.87;7.70;;;;;;;2.79;100.00;61100.44;5111944;28;20883;-73
2022/04/21 00:41:55;;;;;;;11.63;8.23;;;;;;;2.74;100.00;61094.59;5112229;28;20561;-72
2022/04/21 00:44:22;;;;;;;13.03;8.07;;;;;;;2.71;100.00;61091.38;5112034;28;20529;-72
2022/04/21 00:46:49;;;;;;;13.03;7.67;;;;;;;2.69;100.00;61094.28;5112036;28;20920;-72
2022/04/21 00:49:18;;;;;;;11.53;7.67;;;;;;;2.74;100.00;61102.66;5111886;28;20513;-72
2022/04/21 00:51:45;;;;;;;11.57;7.23;;;;;;;2.74;100.00;61094.59;5111777;28;20493;-73
2022/04/21 00:54:13;;;;;;;11.97;8.07;;;;;;;2.71;100.00;61096.41;5112005;28;20441;-71
2022/04/21 00:56:42;;;;;;;14.23;7.70;;;;;;;2.71;100.00;61093.91;5112181;28;20436;-73
2022/04/21 00:59:10;;;;;;;13.70;8.33;;;;;;;2.73;100.00;61096.56;5111349;28;20506;-72
2022/04/21 01:04:25;;;;;;;10.53;7.63;;;;;;;2.70;100.00;61092.84;5113089;28;20778;-74
2022/04/21 01:06:53;;;;;;;13.20;7.87;;;;;;;2.06;100.00;61038.47;5111967;28;21088;-73
2022/04/21 01:09:22;;;;;;;12.50;7.77;;;;;;;2.61;100.00;61083.81;5111422;28;20453;-71
2022/04/21 01:11:51;;;;;;;12.87;8.10;;;;;;;2.47;100.00;61072.00;5111750;28;20436;-72
2022/04/21 01:14:19;;;;;;;11.57;7.60;;;;;;;2.31;100.00;61052.47;5111456;28;20451;-72
2022/04/21 01:16:46;;;;;;;11.03;7.70;;;;;;;2.11;100.00;61028.19;5111946;28;20440;-73
2022/04/21 01:19:14;;;;;;;13.47;8.27;;;;;;;2.37;100.00;61058.31;5112000;28;20460;-71
2022/04/21 01:21:44;;;;;;;11.43;8.07;;;;;;;2.43;100.00;61062.19;5116215;28;20947;-73
2022/04/21 01:24:10;;;;;;;12.33;8.37;;;;;;;2.33;100.00;61059.63;5115782;28;20455;-73
2022/04/21 01:26:38;;;;;;;14.07;7.37;;;;;;;2.39;100.00;61060.97;5115665;27;20444;-73
2022/04/21 01:29:06;;;;;;;12.80;8.20;;;;;;;2.37;100.00;61058.84;5115668;28;20498;-73
2022/04/21 01:31:32;;;;;;;12.93;8.70;;;;;;;2.04;100.00;61020.75;5115759;28;20441;-73
2022/04/21 01:34:00;;;;;;;13.67;8.60;;;;;;;2.27;100.00;61045.72;5115460;28;21028;-72
2022/04/21 01:36:27;;;;;;;12.43;8.60;;;;;;;2.15;100.00;61035.50;5115811;28;20797;-73
2022/04/21 01:41:39;;;;;;;12.40;8.80;;;;;;;1.94;100.00;61017.66;5115586;28;20429;-73
2022/04/21 01:44:06;;;;;;;12.27;8.43;;;;;;;2.15;100.00;61032.44;5115384;28;20830;-72
2022/04/21 01:46:32;;;;;;;12.57;8.80;;;;;;;2.24;100.00;61047.56;5115083;28;20965;-74
2022/04/21 01:49:00;;;;;;;13.67;8.90;;;;;;;2.03;100.00;61025.25;5115243;28;20436;-73
2022/04/21 01:51:27;;;;;;;11.57;7.73;;;;;;;2.03;100.00;61027.78;5114953;28;20445;-73
2022/04/21 01:53:56;;;;;;;11.30;7.33;;;;;;;2.08;100.00;61020.50;5115014;28;20454;-72
2022/04/21 01:56:24;;;;;;;9.53;7.00;;;;;;;1.91;100.00;61007.50;5115429;28;20444;-73
2022/04/21 01:58:51;;;;;;;11.73;8.27;;;;;;;1.48;100.00;60967.41;5115252;28;20455;-74
2022/04/21 02:01:19;;;;;;;10.83;7.77;;;;;;;2.03;100.00;61017.19;5114993;28;20452;-73
2022/04/21 02:03:45;;;;;;;11.90;7.87;;;;;;;1.86;100.00;61001.66;5114993;28;20509;-72
2022/04/21 02:06:14;;;;;;;10.57;7.50;;;;;;;2.13;100.00;61035.88;5114666;28;20440;-71
2022/04/21 02:08:41;;;;;;;10.47;7.33;;;;;;;2.17;100.00;61034.56;5115053;28;20491;-72
2022/04/21 02:11:10;;;;;;;10.87;7.77;;;;;;;2.22;100.00;61040.41;5114632;28;20862;-72
2022/04/21 02:13:36;;;;;;;13.73;8.20;;;;;;;2.22;100.00;61045.44;5114940;28;20448;-71
2022/04/21 02:16:04;;;;;;;11.57;9.00;;;;;;;2.26;100.00;61049.69;5114553;28;20449;-72
2022/04/21 02:18:31;;;;;;;11.13;7.77;;;;;;;2.19;100.00;61044.75;5114204;28;20532;-73
2022/04/21 02:20:58;;;;;;;9.80;7.23;;;;;;;2.19;100.00;61037.22;5114472;28;20444;-72
2022/04/21 02:23:24;;;;;;;10.00;6.90;;;;;;;2.10;100.00;61027.66;5114677;28;20449;-72
2022/04/21 02:25:51;;;;;;;10.50;8.00;;;;;;;1.97;100.00;61016.38;5114792;28;20880;-73
2022/04/21 02:28:22;;;;;;;12.77;8.17;;;;;;;1.93;100.00;61011.59;5114426;28;20541;-72
2022/04/21 02:30:49;;;;;;;9.67;6.90;;;;;;;2.07;100.00;61029.50;5113426;28;20476;-70
2022/04/21 02:33:16;;;;;;;10.13;7.43;;;;;;;2.02;100.00;61024.19;5114079;28;20445;-72
2022/04/21 02:35:43;;;;;;;11.93;7.63;;;;;;;2.10;100.00;61032.69;5114284;27;20459;-71
2022/04/21 02:38:10;;;;;;;11.10;7.60;;;;;;;1.93;100.00;61014.66;5114141;28;20935;-72
2022/04/21 02:40:36;;;;;;;9.73;6.70;;;;;;;1.91;100.00;61010.00;5114436;28;20448;-72
2022/04/21 02:43:03;;;;;;;9.47;6.83;;;;;;;1.93;100.00;61014.66;5114113;28;20510;-73
2022/04/21 02:45:32;;;;;;;10.17;7.10;;;;;;;2.04;100.00;61021.28;5114405;28;20448;-72
2022/04/21 02:48:00;;;;;;;9.33;6.53;;;;;;;2.04;100.00;61026.31;5113993;28;20507;-73
2022/04/21 02:50:28;;;;;;;9.67;6.70;;;;;;;1.98;100.00;61019.41;5114129;28;20443;-71
2022/04/21 02:52:58;;;;;;;10.60;6.83;;;;;;;2.06;100.00;61025.94;5114162;28;20445;-73
2022/04/21 02:58:10;;;;;;;11.43;7.23;;;;;;;1.94;100.00;61015.69;5113950;28;20557;-72
2022/04/21 03:00:38;;;;;;;12.37;7.83;;;;;;;2.08;100.00;61027.50;5113725;28;20835;-73
2022/04/21 03:03:05;;;;;;;12.60;8.40;;;;;;;2.07;100.00;61024.50;5114058;28;20436;-72
2022/04/21 03:05:31;;;;;;;12.30;8.23;;;;;;;2.06;100.00;61025.94;5113898;28;20441;-71
2022/04/21 03:07:58;;;;;;;11.60;7.83;;;;;;;1.89;100.00;61007.88;5113823;28;20488;-73
2022/04/21 03:10:25;;;;;;;10.73;7.87;;;;;;;1.98;100.00;61019.94;5113769;28;20808;-72
2022/04/21 03:12:52;;;;;;;10.63;7.80;;;;;;;1.93;100.00;61014.66;5113619;28;20437;-71
2022/04/21 03:15:20;;;;;;;12.20;7.87;;;;;;;2.04;100.00;61021.28;5113669;27;20872;-72
2022/04/21 03:17:48;;;;;;;11.73;8.13;;;;;;;1.84;100.00;61002.56;5113364;28;20501;-72
2022/04/21 03:25:39;;;;;;;13.27;7.60;;;;;;;1.74;100.00;60989.44;5113633;28;20431;-72
2022/04/21 03:28:06;;;;;;;11.63;7.43;;;;;;;1.98;100.00;61014.38;5113165;28;20485;-73
2022/04/21 03:30:33;;;;;;;10.10;7.13;;;;;;;1.92;100.00;61013.56;5113420;28;20484;-71
2022/04/21 03:33:02;;;;;;;11.03;7.47;;;;;;;2.00;100.00;61019.03;5113794;28;20437;-73
2022/04/21 03:35:29;;;;;;;11.33;7.27;;;;;;;1.95;100.00;61011.75;5113104;28;20455;-72
2022/04/21 03:37:56;;;;;;;13.50;7.80;;;;;;;1.77;100.00;61000.16;5112914;28;20509;-72
2022/04/21 03:40:22;;;;;;;11.33;7.53;;;;;;;1.93;100.00;61009.63;5113231;28;20876;-71
2022/04/21 03:42:49;;;;;;;12.13;7.50;;;;;;;1.93;100.00;61009.63;5113038;27;20502;-72
2022/04/21 03:45:16;;;;;;;12.23;7.90;;;;;;;1.95;100.00;61016.78;5113206;28;20450;-74
2022/04/21 03:47:43;;;;;;;12.17;7.67;;;;;;;2.04;100.00;61021.28;5113017;28;20537;-73
2022/04/21 03:50:11;;;;;;;12.17;8.60;;;;;;;2.15;100.00;61038.00;5112751;28;20441;-74
2022/04/21 03:52:38;;;;;;;13.33;8.43;;;;;;;2.11;100.00;61028.72;5111884;28;20443;-71
2022/04/21 03:55:06;;;;;;;13.47;9.27;;;;;;;2.15;100.00;61032.97;5112757;28;20441;-73
2022/04/21 03:57:33;;;;;;;15.27;9.63;;;;;;;2.11;100.00;61030.72;5113246;28;20540;-75
2022/04/21 04:00:00;;;;;;;11.53;8.90;;;;;;;2.08;100.00;61030.03;5112436;28;20461;-74
2022/04/21 04:02:28;;;;;;;11.90;7.83;;;;;;;2.17;100.00;61035.09;5112578;28;20519;-73
2022/04/21 04:04:55;;;;;;;14.77;9.07;;;;;;;1.68;100.00;60983.06;5112418;28;21020;-73
2022/04/21 04:12:53;;;;;;;15.07;10.77;;;;;;;2.17;100.00;61039.59;5112705;28;20428;-73
2022/04/21 04:15:22;;;;;;;16.50;10.57;;;;;;;2.15;100.00;61035.50;5112252;28;20506;-71
2022/04/21 04:17:49;;;;;;;18.20;9.70;;;;;;;2.15;100.00;61038.00;5112148;28;20463;-72
2022/04/21 04:20:19;;;;;;;18.57;11.67;;;;;;;2.37;100.00;61055.81;5112757;28;20444;-71
2022/04/21 04:22:49;;;;;;;16.37;10.07;;;;;;;2.60;100.00;61082.22;5112242;28;20444;-72
2022/04/21 04:25:17;;;;;;;16.00;10.13;;;;;;;2.68;100.00;61088.22;5112165;28;20510;-73
2022/04/21 04:27:46;;;;;;;15.67;10.07;;;;;;;2.70;100.00;61090.34;5111035;28;20994;-72
2022/04/21 04:30:15;;;;;;;15.90;9.87;;;;;;;2.78;100.00;61104.38;5111902;28;20860;-72
2022/04/21 04:32:42;;;;;;;14.77;9.67;;;;;;;3.12;100.00;61134.97;5112327;28;20441;-72
2022/04/21 04:35:09;;;;;;;17.30;10.33;;;;;;;2.91;100.00;61112.63;5111861;28;21024;-72
2022/04/21 04:37:36;;;;;;;15.70;10.00;;;;;;;3.02;100.00;61124.34;5112182;28;20441;-72
2022/04/21 04:40:05;;;;;;;18.90;12.50;;;;;;;3.24;100.00;61153.28;5111731;28;20497;-72
2022/04/21 04:42:31;;;;;;;20.53;12.77;;;;;;;3.00;100.00;61125.25;5111980;28;20436;-73
2022/04/21 04:47:43;;;;;;;18.70;12.97;;;;;;;2.80;100.00;61100.97;5112471;28;20495;-73
2022/04/21 04:50:11;;;;;;;28.37;16.30;;;;;;;3.21;100.00;61145.06;5111729;28;20445;-72
2022/04/21 04:52:38;;;;;;;28.77;17.07;;;;;;;3.08;100.00;61133.22;5111914;28;20440;-73
2022/04/21 04:55:09;;;;;;;33.47;19.40;;;;;;;3.11;100.00;61139.47;5111163;28;20519;-72
2022/04/21 04:57:36;;;;;;;33.67;19.93;;;;;;;2.95;100.00;61121.91;5111765;28;20443;-71
2022/04/21 05:00:04;;;;;;;32.67;16.80;;;;;;;2.83;100.00;61109.72;5111859;28;20494;-72
2022/04/21 05:02:31;;;;;;;30.40;18.87;;;;;;;3.02;100.00;61127.38;5111615;28;21015;-71
2022/04/21 05:04:58;;;;;;;26.67;16.07;;;;;;;2.98;100.00;61122.59;5111801;28;20445;-72
2022/04/21 05:07:25;;;;;;;26.80;16.80;;;;;;;3.17;100.00;61140.28;5111384;28;20870;-71
2022/04/21 05:09:52;;;;;;;25.53;15.27;;;;;;;3.08;100.00;61135.75;5111465;28;20484;-73
2022/04/21 05:12:21;;;;;;;28.70;15.93;;;;;;;3.11;100.00;61133.91;5111393;28;20444;-73
2022/04/21 05:14:51;;;;;;;28.67;16.67;;;;;;;3.11;100.00;61138.94;5111625;28;20510;-72
2022/04/21 05:17:18;;;;;;;26.43;16.00;;;;;;;3.01;100.00;61123.28;5111426;28;20460;-73
2022/04/21 05:19:45;;;;;;;28.87;17.00;;;;;;;3.20;100.00;61144.00;5111239;28;20461;-73
2022/04/21 05:22:14;;;;;;;30.07;17.47;;;;;;;2.90;100.00;61111.59;5111310;28;20882;-72
2022/04/21 05:24:45;;;;;;;29.70;16.70;;;;;;;3.46;100.00;61176.16;5111260;28;20455;-73
2022/04/21 05:27:14;;;;;;;31.10;17.87;;;;;;;3.52;100.00;61179.47;5111621;28;20429;-72
2022/04/21 05:32:28;;;;;;;30.17;17.47;;;;;;;2.40;100.00;61061.50;5111723;28;20505;-73
2022/04/21 05:34:56;;;;;;;42.13;22.40;;;;;;;3.62;100.00;61190.66;5110365;28;20440;-72
2022/04/21 05:37:23;;;;;;;55.27;31.57;;;;;;;3.89;100.00;61219.34;5111830;28;20442;-72
2022/04/21 05:39:51;;;;;;;54.83;30.00;;;;;;;4.13;100.00;61247.41;5113400;28;20926;-72
2022/04/21 05:42:22;;;;;;;45.10;25.53;;;;;;;4.23;100.00;61253.00;5113365;28;20959;-73
2022/04/21 05:44:52;;;;;;;41.87;24.03;;;;;;;4.27;100.00;61259.78;5111974;28;20436;-73
2022/04/21 05:47:20;;;;;;;43.23;24.63;;;;;;;4.08;100.00;61236.53;5111056;28;20444;-72
2022/04/21 05:49:47;;;;;;;35.20;21.17;;;;;;;4.48;100.00;61281.09;5111189;28;20487;-72
2022/04/21 05:52:17;;;;;;;33.17;19.93;;;;;;;4.49;100.00;61289.72;5110923;28;20462;-73
2022/04/21 05:54:45;;;;;;;31.63;20.33;;;;;;;4.66;100.00;61297.72;5111566;28;20436;-73
2022/04/21 05:57:12;;;;;;;33.93;21.20;;;;;;;4.62;100.00;61298.50;5111067;28;20954;-73
2022/04/21 05:59:38;;;;;;;26.90;15.87;;;;;;;4.67;100.00;61301.31;5111147;28;20517;-72
2022/04/21 06:02:07;;;;;;;22.87;14.93;;;;;;;4.76;100.00;61313.94;5111043;28;20498;-71
2022/04/21 06:04:33;;;;;;;24.57;16.40;;;;;;;4.63;100.00;61297.06;5111084;28;20489;-73
2022/04/21 06:07:00;;;;;;;27.07;16.83;;;;;;;4.40;100.00;61270.03;5112821;28;20441;-72
2022/04/21 06:09:28;;;;;;;26.80;17.50;;;;;;;4.35;100.00;61269.78;5114386;28;20485;-73
2022/04/21 06:11:55;;;;;;;24.47;15.57;;;;;;;4.43;100.00;61278.81;5114807;28;20490;-73
2022/04/21 06:14:22;;;;;;;23.80;14.30;;;;;;;4.50;100.00;61285.72;5114498;28;20441;-72
2022/04/21 06:16:49;;;;;;;29.60;16.10;;;;;;;4.17;100.00;61246.63;5114856;28;20517;-73
2022/04/21 06:19:17;;;;;;;29.20;18.90;;;;;;;4.51;100.00;61287.31;5114428;28;20514;-71
2022/04/21 06:21:44;;;;;;;30.47;18.70;;;;;;;4.62;100.00;61296.00;5114509;28;20855;-73
2022/04/21 06:24:11;;;;;;;25.80;16.30;;;;;;;4.79;100.00;61311.56;5114482;28;20447;-72
2022/04/21 06:26:42;;;;;;;24.57;15.33;;;;;;;4.53;100.00;61281.38;5114245;28;20445;-70
2022/04/21 06:29:09;;;;;;;24.53;15.97;;;;;;;4.33;100.00;61265.13;5114120;28;20549;-74
2022/04/21 06:31:36;;;;;;;21.37;14.47;;;;;;;4.66;100.00;61297.72;5114544;28;20915;-72
2022/04/21 06:34:03;;;;;;;25.30;12.60;;;;;;;4.72;100.00;61307.16;5114399;28;20523;-72
2022/04/21 06:36:33;;;;;;;20.30;13.27;;;;;;;5.11;100.00;61345.66;5114654;28;20510;-72
2022/04/21 06:39:03;;;;;;;21.00;13.63;;;;;;;5.09;100.00;61346.06;5114408;28;20537;-73
2022/04/21 06:41:30;;;;;;;19.90;12.37;;;;;;;5.20;100.00;61360.28;5113958;28;20445;-72
2022/04/21 06:49:24;;;;;;;21.07;14.43;;;;;;;5.08;100.00;61342.44;5114149;28;20483;-72
2022/04/21 06:51:52;;;;;;;21.77;13.93;;;;;;;5.34;100.00;61372.66;5114073;28;20572;-72
2022/04/21 06:54:19;;;;;;;21.30;13.77;;;;;;;5.11;100.00;61350.72;5114221;28;20433;-72
2022/04/21 06:56:48;;;;;;;27.90;16.80;;;;;;;4.81;100.00;61316.22;5114116;28;20502;-73
2022/04/21 06:59:15;;;;;;;28.67;16.20;;;;;;;5.59;100.00;61401.84;5113706;28;20453;-72
2022/04/21 07:01:42;;;;;;;24.17;16.37;;;;;;;5.62;100.00;61404.50;5113679;28;20509;-73
2022/04/21 07:04:09;;;;;;;24.17;15.57;;;;;;;5.45;100.00;61384.41;5113400;28;20997;-73
2022/04/21 07:06:36;;;;;;;26.03;14.07;;;;;;;6.24;100.00;61468.09;5113483;28;20437;-71
2022/04/21 07:09:05;;;;;;;25.20;14.63;;;;;;;6.28;100.00;61469.84;5113483;28;21018;-72
2022/04/21 07:11:32;;;;;;;23.80;14.47;;;;;;;6.36;100.00;61480.91;5113430;28;20962;-71
2022/04/21 07:13:59;;;;;;;20.07;13.23;;;;;;;6.59;100.00;61504.91;5113491;28;20997;-73
2022/04/21 07:16:28;;;;;;;20.53;12.90;;;;;;;6.71;100.00;61520.22;5113424;28;20498;-73
2022/04/21 07:18:55;;;;;;;22.77;13.87;;;;;;;6.85;100.00;61532.66;5112743;28;20464;-74
2022/04/21 07:21:22;;;;;;;19.33;12.33;;;;;;;6.75;100.00;61524.50;5113390;28;20955;-72
2022/04/21 07:23:49;;;;;;;18.73;10.10;;;;;;;6.75;100.00;61519.44;5113602;28;20440;-73
2022/04/21 07:26:18;;;;;;;16.43;10.43;;;;;;;6.81;100.00;61530.91;5112908;28;20481;-73
2022/04/21 07:28:45;;;;;;;14.67;10.60;;;;;;;7.25;100.00;61572.81;5113380;28;20486;-73
2022/04/21 07:31:13;;;;;;;15.97;11.27;;;;;;;7.24;100.00;61571.22;5113115;28;20476;-72
2022/04/21 07:33:40;;;;;;;17.83;10.97;;;;;;;7.49;100.00;61600.97;5113096;28;20433;-72
2022/04/21 07:36:07;;;;;;;19.97;11.13;;;;;;;8.08;100.00;61665.47;5113200;28;20437;-73
2022/04/21 07:38:34;;;;;;;21.83;11.93;;;;;;;8.45;100.00;61697.94;5113246;28;20444;-74
2022/04/21 07:41:03;;;;;;;16.10;10.53;;;;;;;8.80;100.00;61737.38;5112435;28;20456;-72
2022/04/21 07:43:33;;;;;;;14.40;9.93;;;;;;;8.96;100.00;61757.00;5112776;28;20493;-73
2022/04/21 07:46:00;;;;;;;14.57;10.37;;;;;;;8.44;100.00;61703.94;5112921;28;20433;-73
2022/04/21 07:49:44;;;;;;;15.63;10.43;;;;;;;9.07;100.00;61766.25;5113075;28;20892;-73
2022/04/21 07:51:15;;;;;;;14.40;9.90;;;;;;;9.34;100.00;61795.13;5112456;28;20467;-73
2022/04/21 07:53:42;;;;;;;17.80;11.93;;;;;;;9.59;100.00;61823.34;5112532;28;20445;-73
2022/04/21 07:56:09;;;;;;;17.03;11.00;;;;;;;9.55;100.00;61822.16;5112479;28;20490;-72
2022/04/21 07:58:37;;;;;;;14.33;10.13;;;;;;;9.50;100.00;61816.25;5112277;28;20433;-73
2022/04/21 08:01:04;;;;;;;15.77;10.03;;;;;;;9.41;100.00;61801.53;5112829;28;20449;-72
2022/04/21 08:03:37;;;;;;;12.80;8.97;;;;;;;9.47;100.00;61813.03;5112505;28;20501;-72
2022/04/21 08:06:04;;;;;;;14.27;9.70;;;;;;;9.71;100.00;61836.19;5112569;28;20440;-74
2022/04/21 08:08:31;;;;;;;13.83;10.03;;;;;;;9.69;100.00;61831.50;5112286;28;20444;-73
2022/04/21 08:10:59;;;;;;;16.07;9.97;;;;;;;9.60;100.00;61826.97;5112283;28;20441;-72
2022/04/21 08:13:28;;;;;;;12.83;9.57;;;;;;;9.42;100.00;61797.53;5112042;28;20432;-73
2022/04/21 08:15:57;;;;;;;14.93;8.93;;;;;;;9.78;100.00;61841.16;5112350;28;20451;-72
2022/04/21 08:18:23;;;;;;;12.07;9.03;;;;;;;9.42;100.00;61805.16;5112197;28;20469;-71
2022/04/21 08:20:53;;;;;;;13.07;9.47;;;;;;;8.99;100.00;61760.22;5112355;28;20465;-72
2022/04/21 08:23:20;;;;;;;16.43;9.53;;;;;;;9.36;100.00;61796.72;5112085;28;20498;-72
2022/04/21 08:34:05;;;;;;;16.10;8.90;;;;;;;9.76;100.00;61844.09;5112205;28;21099;-72
2022/04/21 08:36:32;;;;;;;11.40;7.93;;;;;;;10.16;100.00;61881.84;5111900;28;20494;-72
2022/04/21 08:38:59;;;;;;;13.90;9.47;;;;;;;10.29;100.00;61895.75;5112069;28;20898;-71
2022/04/21 08:41:28;;;;;;;11.87;8.13;;;;;;;10.78;100.00;61952.81;5110615;28;20445;-73
2022/04/21 08:43:57;;;;;;;12.73;8.63;;;;;;;10.97;100.00;61968.59;5111555;28;20441;-71
2022/04/21 08:46:28;;;;;;;11.17;8.53;;;;;;;11.20;100.00;61994.72;5111734;28;20202;-72
2022/04/21 08:48:55;;;;;;;11.87;8.53;;;;;;;11.31;100.00;62003.97;5111664;28;20201;-73
2022/04/21 08:51:23;;;;;;;14.67;8.60;;;;;;;10.52;100.00;61922.94;5111401;28;20264;-72
2022/04/21 08:53:50;;;;;;;12.83;8.73;;;;;;;10.89;100.00;61962.56;5111100;28;20199;-74
2022/04/21 08:56:18;;;;;;;12.67;8.53;;;;;;;11.43;100.00;62016.84;5111656;28;20199;-72
2022/04/21 08:58:45;;;;;;;12.27;9.00;;;;;;;9.91;100.00;61855.59;5111563;28;20220;-72
2022/04/21 09:01:13;;;;;;;11.23;8.43;;;;;;;10.61;100.00;61935.13;5111340;28;20615;-71
2022/04/21 09:03:41;;;;;;;19.37;10.17;;;;;;;10.87;100.00;61962.97;5111855;28;20264;-72
2022/04/21 09:06:08;;;;;;;12.70;9.53;;;;;;;10.67;100.00;61941.56;5111614;28;20195;-72
2022/04/21 09:08:35;;;;;;;14.17;8.50;;;;;;;10.45;100.00;61917.97;5110301;28;20202;-72
2022/04/21 09:11:03;;;;;;;16.53;10.73;;;;;;;10.99;100.00;61975.31;5111843;28;20484;-73
2022/04/21 09:13:34;;;;;;;16.30;9.60;;;;;;;10.97;100.00;61973.69;5111349;28;20205;-73
2022/04/21 09:16:05;;;;;;;18.00;8.90;;;;;;;10.28;100.00;61897.25;5111610;28;20255;-74
2022/04/21 09:18:41;;;;;;;12.10;8.90;;;;;;;10.44;100.00;61916.94;5111540;28;20460;-72
2022/04/21 09:21:10;;;;;;;13.17;10.20;;;;;;;10.12;100.00;61882.66;5111297;28;20432;-72
2022/04/21 09:23:37;;;;;;;17.20;10.03;;;;;;;10.79;100.00;61954.41;5111187;28;20448;-71
2022/04/21 09:26:10;;;;;;;16.47;10.07;;;;;;;10.20;100.00;61891.22;5111291;28;20468;-71
2022/04/21 09:28:37;;;;;;;13.13;9.23;;;;;;;10.27;100.00;61893.63;5110291;28;20444;-74
2022/04/21 09:31:04;;;;;;;17.03;9.67;;;;;;;10.62;100.00;61933.66;5111292;28;20491;-73
2022/04/21 09:33:32;;;;;;;12.83;9.30;;;;;;;10.68;100.00;61944.66;5111207;28;20677;-73
2022/04/21 09:36:03;;;;;;;14.37;9.73;;;;;;;10.84;100.00;61959.78;5111318;28;20195;-72
2022/04/21 09:38:30;;;;;;;15.73;9.60;;;;;;;8.98;100.00;61761.69;5111293;28;20447;-72
2022/04/21 09:41:05;;;;;;;15.50;10.20;;;;;;;10.32;100.00;61904.06;5113184;28;20276;-73
2022/04/21 09:43:37;;;;;;;12.57;9.47;;;;;;;10.39;100.00;61911.56;5115379;28;20637;-72
2022/04/21 09:46:13;;;;;;;13.37;9.93;;;;;;;10.88;100.00;61958.97;5115277;28;20684;-72
2022/04/21 09:48:40;;;;;;;19.30;11.10;;;;;;;11.00;100.00;61973.84;5115081;28;20454;-71
2022/04/21 09:51:12;;;;;;;13.43;10.00;;;;;;;10.80;100.00;61960.59;5114850;28;20689;-72
2022/04/21 09:53:57;;;;;;;25.80;16.23;;;;;;;10.48;100.00;61918.66;5115380;28;20489;-72
2022/04/21 09:56:32;;;;;;;18.57;12.47;;;;;;;10.52;100.00;61922.94;5115230;28;20281;-72
2022/04/21 09:59:00;;;;;;;15.53;11.73;;;;;;;10.57;100.00;61925.75;5114985;28;20657;-72
2022/04/21 10:01:27;;;;;;;20.03;11.43;;;;;;;10.57;100.00;61930.84;5114825;28;20449;-72
2022/04/21 10:03:54;;;;;;;13.37;10.37;;;;;;;10.48;100.00;61916.13;5114301;28;20822;-73
2022/04/21 10:06:25;;;;;;;19.27;11.30;;;;;;;10.85;100.00;61960.84;5115028;28;20505;-73
2022/04/21 10:08:52;;;;;;;22.07;11.23;;;;;;;11.04;100.00;61978.13;5115004;28;20864;-73
2022/04/21 10:11:23;;;;;;;24.13;10.50;;;;;;;11.12;100.00;61986.69;5114901;28;20488;-72
2022/04/21 10:13:54;;;;;;;15.27;10.67;;;;;;;10.95;100.00;61971.00;5114738;28;20209;-73
2022/04/21 10:16:21;;;;;;;17.20;10.43;;;;;;;11.29;100.00;62007.47;5114803;28;20310;-74
2022/04/21 10:18:51;;;;;;;19.63;10.33;;;;;;;11.46;100.00;62022.59;5114317;28;20460;-72
2022/04/21 10:21:26;;;;;;;14.73;10.17;;;;;;;11.37;100.00;62012.97;5114328;28;20233;-72
2022/04/21 10:23:56;;;;;;;31.40;11.37;;;;;;;11.13;100.00;61984.69;5114657;28;20796;-73
2022/04/21 10:26:36;;;;;;;15.57;11.63;;;;;;;10.65;100.00;61933.78;5114152;28;20211;-73
2022/04/21 10:29:11;;;;;;;27.90;11.87;;;;;;;11.28;100.00;62000.75;5114125;28;20226;-71
2022/04/21 10:31:47;;;;;;;27.60;11.27;;;;;;;10.12;100.00;61880.63;5114594;28;20195;-73
2022/04/21 10:34:28;;;;;;;27.93;15.43;;;;;;;11.01;100.00;61978.00;5114712;28;20450;-73
2022/04/21 10:37:07;;;;;;;15.87;10.77;;;;;;;11.23;100.00;61997.97;5114267;28;20194;-72
2022/04/21 10:39:39;;;;;;;18.77;10.63;;;;;;;11.28;100.00;62000.75;5113945;27;20668;-73
2022/04/21 10:42:16;;;;;;;15.97;11.20;;;;;;;11.27;100.00;62005.31;5113896;28;20213;-73
2022/04/21 10:44:49;;;;;;;17.70;11.07;;;;;;;11.39;100.00;62015.09;5114332;28;20871;-73
2022/04/21 10:47:37;;;;;;;26.30;10.93;;;;;;;11.61;100.00;62038.69;5114028;28;20235;-73
2022/04/21 10:50:16;;;;;;;14.97;10.40;;;;;;;11.29;100.00;62002.34;5114278;28;20258;-73
2022/04/21 10:58:52;;;;;;;21.67;10.07;;;;;;;11.00;100.00;61974.38;5113954;28;20194;-73
2022/04/21 11:01:31;;;;;;;18.87;11.20;;;;;;;10.36;100.00;61903.25;5114028;28;20209;-72
2022/04/21 11:04:20;;;;;;;16.97;10.83;;;;;;;10.75;100.00;61950.13;5112547;28;20195;-73
2022/04/21 11:06:48;;;;;;;19.03;11.13;;;;;;;11.28;100.00;62000.75;5113941;28;20201;-72
2022/04/21 11:09:38;;;;;;;17.27;10.40;;;;;;;11.85;100.00;62064.97;5113471;28;20203;-73
2022/04/21 11:12:09;;;;;;;19.80;10.03;;;;;;;11.93;100.00;62073.03;5113304;28;20195;-74
2022/04/21 11:14:36;;;;;;;16.10;9.13;;;;;;;12.71;100.00;62156.75;5114059;28;20260;-72
2022/04/21 11:17:06;;;;;;;16.23;9.27;;;;;;;13.09;100.00;62193.91;5114033;28;20199;-72
2022/04/21 11:19:34;;;;;;;25.80;10.57;;;;;;;13.26;100.00;62217.31;5114798;27;20284;-71
2022/04/21 11:22:02;;;;;;;21.20;12.00;;;;;;;13.33;100.00;62225.34;5113432;28;20252;-72
2022/04/21 11:25:06;;;;;;;16.20;9.73;;;;;;;13.73;100.00;62267.78;5113434;28;20276;-72
2022/04/21 11:27:41;;;;;;;21.37;9.03;;;;;;;14.34;100.00;62332.84;5113573;28;20209;-72
2022/04/21 11:30:11;;;;;;;14.43;9.10;;;;;;;14.61;100.00;62361.88;5113708;28;20287;-72
2022/04/21 11:32:38;;;;;;;12.27;8.87;;;;;;;14.72;100.00;62370.59;5113441;28;20227;-73
2022/04/21 11:35:07;;;;;;;21.90;10.00;;;;;;;14.18;100.00;62308.47;5112717;28;20199;-73
2022/04/21 11:37:54;;;;;;;12.70;8.80;;;;;;;14.53;100.00;62357.88;5112805;28;20760;-73
2022/04/21 11:40:26;;;;;;;11.93;8.60;;;;;;;13.71;100.00;62265.63;5112810;28;20738;-73
2022/04/21 11:42:58;;;;;;;11.83;8.43;;;;;;;14.63;100.00;62368.63;5112532;28;20248;-72
2022/04/21 11:45:26;;;;;;;11.63;8.70;;;;;;;14.57;100.00;62354.50;5112927;28;20218;-72
2022/04/21 11:47:54;;;;;;;12.87;8.33;;;;;;;14.88;100.00;62387.81;5112877;28;20253;-74
2022/04/21 11:50:31;;;;;;;11.67;8.10;;;;;;;14.60;100.00;62360.28;5112942;28;20290;-72
2022/04/21 11:52:59;;;;;;;13.80;7.40;;;;;;;15.25;100.00;62430.22;5113010;28;20635;-72
2022/04/21 11:55:29;;;;;;;18.47;8.47;;;;;;;15.72;100.00;62477.69;5112941;28;20203;-72
2022/04/21 11:57:57;;;;;;;14.73;8.07;;;;;;;15.65;100.00;62473.28;5112880;28;20221;-72
2022/04/21 12:08:44;;;;;;;9.60;6.33;;;;;;;16.82;100.00;62593.13;5113124;28;20202;-72
2022/04/21 12:11:12;;;;;;;12.63;7.83;;;;;;;16.62;100.00;62574.13;5112358;28;20725;-72
2022/04/21 12:13:41;;;;;;;12.20;8.10;;;;;;;16.57;100.00;62566.16;5113059;28;20247;-73
2022/04/21 12:16:39;;;;;;;10.40;8.13;;;;;;;16.19;100.00;62530.34;5112341;28;20202;-72
2022/04/21 12:19:17;;;;;;;14.20;8.97;;;;;;;15.47;100.00;62456.47;5112354;28;20600;-73
2022/04/21 12:21:45;;;;;;;12.67;8.63;;;;;;;15.74;100.00;62482.97;5112252;28;20525;-72
2022/04/21 12:24:22;;;;;;;19.23;9.33;;;;;;;15.73;100.00;62481.91;5112090;28;20195;-73